Time;durP1;ratioP1;P1;durP2;ratioP2;P2;SDS_P1;SDS_P2;PMS_P1;PMS_P2;Temp;Humidity;BMP_temperature;BMP_pressure;BME280_temperature;BME280_humidity;BME280_pressure;Samples;Min_cycle;Max_cycle;Signal;HPM_P1;HPM_P2
2021/06/26 13:14:56;;;;;;;1.07;1.00;;;;;;;31.93;43.24;98271.41;5320008;22;1505858;-95
2021/06/26 13:17:22;;;;;;;0.80;0.77;;;;;;;32.05;42.53;98311.63;4990530;28;20070;-96
2021/06/26 13:19:52;;;;;;;2.25;1.10;;;;;;;32.05;41.81;98265.91;4994015;28;20027;-96
2021/06/26 13:22:19;;;;;;;2.35;1.42;;;;;;;31.92;43.01;98284.19;5012613;28;20049;-96
2021/06/26 13:24:48;;;;;;;0.45;0.45;;;;;;;31.47;42.04;98279.84;4986035;28;20026;-94
2021/06/26 13:27:15;;;;;;;0.65;0.63;;;;;;;31.89;41.58;98331.84;4993637;28;20049;-96
2021/06/26 13:29:41;;;;;;;1.33;1.23;;;;;;;31.66;42.04;98267.81;4999371;28;20026;-96
2021/06/26 13:32:08;;;;;;;1.30;0.55;;;;;;;31.71;43.58;98270.41;5223414;23;20115;-96
2021/06/26 13:34:34;;;;;;;1.45;1.30;;;;;;;31.58;45.35;98258.59;4990439;28;20035;-96
2021/06/26 13:36:59;;;;;;;1.88;1.55;;;;;;;31.71;43.86;98318.22;4988412;28;20043;-96
2021/06/26 13:39:25;;;;;;;8.32;1.88;;;;;;;31.08;44.97;98236.75;4984523;28;20064;-96
2021/06/26 13:41:51;;;;;;;1.13;1.02;;;;;;;31.82;45.51;98329.88;4978716;28;20491;-95
2021/06/26 13:44:17;;;;;;;0.85;0.85;;;;;;;31.84;44.63;98314.97;4978933;28;20565;-94
2021/06/26 13:46:44;;;;;;;6.43;1.40;;;;;;;31.68;44.85;98310.84;4980161;28;20034;-95
2021/06/26 13:49:10;;;;;;;0.63;0.63;;;;;;;31.81;46.06;98327.59;4980596;28;20038;-95
2021/06/26 13:51:35;;;;;;;4.68;1.73;;;;;;;32.10;46.16;98333.47;4982027;28;20402;-96
2021/06/26 13:54:01;;;;;;;5.55;1.20;;;;;;;32.01;44.44;98302.75;4979611;28;20023;-94
2021/06/26 13:56:27;;;;;;;1.85;1.58;;;;;;;31.61;44.33;98285.97;4976791;28;20027;-94
2021/06/26 13:58:52;;;;;;;2.28;0.57;;;;;;;31.36;44.87;98261.13;4980073;28;20030;-95
2021/06/26 14:01:20;;;;;;;1.23;1.13;;;;;;;31.85;44.95;98327.91;4973037;28;20454;-95
2021/06/26 14:03:46;;;;;;;2.47;0.73;;;;;;;30.97;45.00;98225.09;5060977;23;20058;-96
2021/06/26 14:06:15;;;;;;;1.38;1.27;;;;;;;30.88;44.62;98240.00;5021212;28;20488;-95
2021/06/26 14:08:43;;;;;;;6.47;1.98;;;;;;;30.91;43.92;98227.44;5044021;28;20452;-93
2021/06/26 14:11:09;;;;;;;4.68;1.23;;;;;;;31.16;45.41;98259.50;5031332;28;20040;-96
2021/06/26 14:13:38;;;;;;;0.57;0.57;;;;;;;30.83;45.64;98226.75;5041454;28;20108;-96
2021/06/26 14:16:04;;;;;;;19.73;2.28;;;;;;;30.88;45.50;98255.03;5023627;28;20060;-96
2021/06/26 14:18:29;;;;;;;7.15;2.22;;;;;;;30.85;47.57;98258.31;5022222;28;20473;-95
2021/06/26 14:20:55;;;;;;;1.05;1.02;;;;;;;30.82;47.56;98248.84;5036490;28;20033;-93
2021/06/26 14:23:20;;;;;;;1.23;0.43;;;;;;;31.13;47.02;98312.06;5036025;28;20025;-95
2021/06/26 14:25:46;;;;;;;0.40;0.40;;;;;;;30.82;47.58;98296.56;5036415;28;20038;-92
2021/06/26 14:28:11;;;;;;;1.30;0.40;;;;;;;30.74;47.52;98291.69;5018489;28;20022;-93
2021/06/26 14:30:37;;;;;;;13.90;1.67;;;;;;;30.70;49.09;98294.22;5019104;28;20103;-91
2021/06/26 14:33:03;;;;;;;5.50;2.10;;;;;;;30.41;50.26;98287.44;5035934;28;20122;-92
2021/06/26 14:35:29;;;;;;;25.52;3.40;;;;;;;30.18;53.47;98284.03;5018413;28;20611;-87
2021/06/26 14:37:59;;;;;;;25.83;4.70;;;;;;;29.89;59.03;98275.84;5034490;28;20056;-87
2021/06/26 14:40:25;;;;;;;6.95;4.38;;;;;;;29.96;63.84;98305.63;5017554;28;20029;-86
2021/06/26 14:42:50;;;;;;;16.48;3.50;;;;;;;29.44;69.26;98270.41;5035798;28;20033;-93
2021/06/26 14:45:16;;;;;;;2.55;2.28;;;;;;;29.43;70.71;98343.66;5017985;28;20485;-89
2021/06/26 14:47:41;;;;;;;4.85;1.48;;;;;;;29.02;73.94;98353.44;5017629;28;20354;-89
2021/06/26 14:50:07;;;;;;;2.38;1.05;;;;;;;28.51;77.60;98375.66;5031930;28;20128;-90
2021/06/26 14:52:33;;;;;;;13.52;1.45;;;;;;;27.56;80.55;98360.81;5033998;28;20025;-89
2021/06/26 14:54:59;;;;;;;0.57;0.57;;;;;;;26.92;82.45;98353.09;5034141;28;20057;-87
2021/06/26 14:57:25;;;;;;;4.93;3.00;;;;;;;26.69;83.54;98386.91;5034126;28;20029;-89
2021/06/26 14:59:50;;;;;;;0.65;0.65;;;;;;;26.07;79.05;98381.22;5033838;28;20029;-89
2021/06/26 15:02:15;;;;;;;2.05;1.15;;;;;;;25.58;78.18;98353.50;5028790;28;20061;-91
2021/06/26 15:04:42;;;;;;;5.47;2.20;;;;;;;25.36;82.31;98314.34;5014356;28;20064;-91
2021/06/26 15:07:07;;;;;;;4.07;1.00;;;;;;;25.09;85.19;98297.41;5014856;28;20100;-92
2021/06/26 15:09:33;;;;;;;19.27;2.05;;;;;;;24.74;87.16;98238.50;5014736;28;20571;-90
2021/06/26 15:11:59;;;;;;;2.63;1.83;;;;;;;25.30;82.52;98251.50;5014173;28;20041;-88
2021/06/26 15:14:24;;;;;;;5.80;1.35;;;;;;;25.42;83.53;98264.84;5013740;28;20025;-89
2021/06/26 15:16:50;;;;;;;7.38;1.77;;;;;;;25.56;79.39;98305.13;5015900;28;20026;-92
2021/06/26 15:19:15;;;;;;;10.30;1.88;;;;;;;25.09;82.40;98322.88;5014776;28;20032;-94
2021/06/26 15:21:40;;;;;;;0.80;0.60;;;;;;;24.63;83.80;98315.03;5015125;28;20111;-90
2021/06/26 15:24:07;;;;;;;0.10;0.10;;;;;;;24.54;83.29;98304.13;5015491;28;20018;-91
2021/06/26 15:26:32;;;;;;;2.70;1.92;;;;;;;24.84;82.32;98304.59;5014250;28;20030;-91
2021/06/26 15:29:07;;;;;;;4.18;1.85;;;;;;;25.16;82.46;98292.41;5013382;28;20034;-91
2021/06/26 15:31:37;;;;;;;5.18;1.55;;;;;;;25.31;80.30;98241.72;5013581;28;20029;-90
2021/06/26 15:34:04;;;;;;;1.48;1.38;;;;;;;25.45;79.17;98275.03;5014487;28;20026;-93
2021/06/26 15:36:31;;;;;;;1.85;1.67;;;;;;;25.63;78.87;98261.28;5014709;28;20041;-88
2021/06/26 15:38:57;;;;;;;5.93;2.63;;;;;;;25.89;76.94;98295.16;5013579;28;20497;-89
2021/06/26 15:41:22;;;;;;;1.45;0.80;;;;;;;25.67;73.77;98309.84;5013579;28;20121;-88
2021/06/26 15:43:48;;;;;;;2.25;1.42;;;;;;;25.24;71.97;98270.66;5013177;28;20053;-89
2021/06/26 15:46:13;;;;;;;1.15;0.70;;;;;;;25.40;72.09;98295.72;5014091;28;20033;-88
2021/06/26 15:48:39;;;;;;;2.17;1.65;;;;;;;25.77;70.03;98330.69;5013712;28;20034;-92
2021/06/26 15:51:05;;;;;;;2.95;1.52;;;;;;;26.00;69.41;98322.44;5020465;28;20026;-96
2021/06/26 15:53:30;;;;;;;17.15;1.63;;;;;;;26.07;68.76;98299.09;5017496;28;20030;-96
2021/06/26 15:55:58;;;;;;;2.75;2.00;;;;;;;25.58;71.63;98296.91;5015524;28;20033;-96
2021/06/26 15:58:25;;;;;;;1.20;1.00;;;;;;;25.35;73.74;98307.94;5012162;28;20040;-96
2021/06/26 16:00:51;;;;;;;3.00;1.33;;;;;;;25.02;73.18;98266.97;5012963;28;20486;-96
2021/06/26 16:03:17;;;;;;;1.58;1.48;;;;;;;25.48;74.75;98295.81;5013072;28;20054;-96
2021/06/26 16:05:42;;;;;;;0.55;0.55;;;;;;;25.41;72.62;98293.66;5013735;28;20493;-96
2021/06/26 16:08:08;;;;;;;0.20;0.20;;;;;;;25.29;74.55;98292.38;5014761;28;20034;-96
2021/06/26 16:10:33;;;;;;;12.75;1.70;;;;;;;25.18;75.77;98267.94;5013500;28;20482;-94
2021/06/26 16:12:59;;;;;;;6.97;2.50;;;;;;;25.12;74.41;98256.75;5013933;28;20110;-94
2021/06/26 16:15:24;;;;;;;1.23;1.13;;;;;;;25.29;75.01;98247.13;5013370;28;20029;-96
2021/06/26 16:17:50;;;;;;;6.95;1.70;;;;;;;24.99;71.92;98224.94;5013823;28;20029;-94
2021/06/26 16:20:15;;;;;;;2.00;1.65;;;;;;;24.99;71.42;98237.00;5013361;28;20034;-93
2021/06/26 16:22:41;;;;;;;0.85;0.85;;;;;;;24.78;71.66;98244.59;5013375;28;20410;-90
2021/06/26 16:25:07;;;;;;;0.80;0.80;;;;;;;24.75;72.34;98282.44;5013318;28;20032;-92
2021/06/26 16:27:35;;;;;;;2.53;0.95;;;;;;;24.59;73.36;98292.00;5012979;28;20038;-96
2021/06/26 16:30:00;;;;;;;2.40;2.00;;;;;;;24.01;75.07;98241.91;5015658;28;20092;-96
2021/06/26 16:32:26;;;;;;;0.85;0.85;;;;;;;23.68;76.96;98225.56;5017268;28;20067;-96
2021/06/26 16:34:51;;;;;;;0.55;0.55;;;;;;;23.91;77.91;98254.91;5014871;28;20037;-95
2021/06/26 16:37:17;;;;;;;4.47;2.00;;;;;;;23.57;78.44;98239.84;5017294;28;20042;-95
2021/06/26 16:39:47;;;;;;;4.93;2.55;;;;;;;23.69;78.46;98298.34;5013887;28;20469;-93
2021/06/26 16:42:17;;;;;;;15.30;2.83;;;;;;;23.30;81.41;98279.16;5013474;28;20096;-96
2021/06/26 16:44:43;;;;;;;1.90;1.70;;;;;;;23.58;82.31;98331.59;5013568;28;20053;-93
2021/06/26 16:47:09;;;;;;;19.70;2.97;;;;;;;23.24;81.11;98315.13;5013086;28;20057;-93
2021/06/26 16:49:34;;;;;;;1.55;1.45;;;;;;;22.98;81.29;98388.94;5012732;28;20064;-91
2021/06/26 16:52:00;;;;;;;10.13;2.40;;;;;;;22.80;80.98;98487.47;5012644;28;20056;-89
2021/06/26 16:54:25;;;;;;;2.92;1.73;;;;;;;22.46;81.17;98541.22;5013736;28;20025;-88
2021/06/26 16:56:50;;;;;;;1.08;0.30;;;;;;;22.67;78.42;98671.13;5012745;28;20026;-88
2021/06/26 16:59:16;;;;;;;3.30;0.85;;;;;;;22.71;74.60;98731.56;5012912;28;20026;-91
2021/06/26 17:01:41;;;;;;;3.88;1.55;;;;;;;22.63;74.63;98792.53;5012580;28;20033;-91
2021/06/26 17:04:07;;;;;;;0.38;0.38;;;;;;;20.91;85.90;98762.28;5012360;28;20062;-89
2021/06/26 17:06:32;;;;;;;1.55;1.45;;;;;;;20.26;94.01;98837.94;5012562;28;20477;-87
2021/06/26 17:08:58;;;;;;;3.78;0.98;;;;;;;19.56;100.00;98893.63;5012242;28;20034;-86
2021/06/26 17:11:23;;;;;;;0.30;0.30;;;;;;;19.42;100.00;98926.06;5013157;28;20113;-87
2021/06/26 17:13:49;;;;;;;2.80;1.80;;;;;;;18.85;100.00;98905.44;5012012;28;20053;-86
2021/06/26 17:16:14;;;;;;;2.47;1.70;;;;;;;18.78;100.00;98926.22;5012228;28;20061;-87
2021/06/26 17:18:40;;;;;;;0.95;0.95;;;;;;;19.13;100.00;98973.81;5013292;28;20445;-86
2021/06/26 17:21:05;;;;;;;7.60;1.02;;;;;;;18.87;100.00;98930.91;5011919;28;20041;-86
2021/06/26 17:23:31;;;;;;;0.30;0.30;;;;;;;19.25;100.00;98983.91;5011790;28;20029;-87
2021/06/26 17:25:57;;;;;;;0.40;0.40;;;;;;;19.25;100.00;98961.50;5013123;28;20034;-85
2021/06/26 17:28:23;;;;;;;0.93;0.73;;;;;;;19.20;100.00;98950.22;5011608;28;20033;-85
2021/06/26 17:30:49;;;;;;;0.13;0.13;;;;;;;18.58;100.00;98864.59;5012800;28;20022;-85
2021/06/26 17:33:15;;;;;;;1.90;0.90;;;;;;;18.61;100.00;98886.81;5012941;28;20030;-85
2021/06/26 17:35:41;;;;;;;5.38;1.27;;;;;;;19.19;100.00;99002.69;5011598;28;20026;-86
2021/06/26 17:38:07;;;;;;;1.85;0.75;;;;;;;19.05;100.00;98967.84;5012325;28;20057;-85
2021/06/26 17:40:35;;;;;;;0.80;0.80;;;;;;;18.88;100.00;98932.47;5016800;28;20026;-86
2021/06/26 17:43:02;;;;;;;19.52;0.73;;;;;;;19.05;100.00;98950.25;5015490;28;20026;-86
2021/06/26 17:45:28;;;;;;;0.98;0.73;;;;;;;19.25;100.00;98952.31;5015628;28;20033;-85
2021/06/26 17:47:53;;;;;;;0.60;0.60;;;;;;;19.11;100.00;98881.88;5016773;28;20037;-85
2021/06/26 17:50:20;;;;;;;0.52;0.52;;;;;;;19.10;100.00;98851.56;5015137;28;20026;-85
2021/06/26 17:52:46;;;;;;;12.18;0.73;;;;;;;19.44;100.00;98861.88;5016555;28;20030;-86
2021/06/26 17:55:12;;;;;;;0.20;0.20;;;;;;;18.74;100.00;98706.56;5016661;28;20034;-85
2021/06/26 17:57:38;;;;;;;8.77;2.28;;;;;;;19.34;100.00;98765.25;5015171;28;20041;-85
2021/06/26 18:00:12;;;;;;;0.30;0.22;;;;;;;19.29;100.00;98751.94;5016359;28;20029;-86
2021/06/26 18:02:38;;;;;;;0.77;0.77;;;;;;;19.34;100.00;98761.69;5014811;28;20490;-85
2021/06/26 18:05:06;;;;;;;0.20;0.20;;;;;;;19.41;100.00;98699.59;5015186;28;20021;-89
2021/06/26 18:07:31;;;;;;;0.10;0.10;;;;;;;18.78;100.00;98629.50;5015205;28;20061;-87
2021/06/26 18:10:01;;;;;;;0.63;0.63;;;;;;;19.06;100.00;98689.34;5016099;28;20117;-86
2021/06/26 18:12:27;;;;;;;0.88;0.88;;;;;;;19.35;100.00;98727.53;5014948;28;20117;-85
2021/06/26 18:14:52;;;;;;;3.10;1.60;;;;;;;19.22;100.00;98726.41;5015021;28;20053;-85
2021/06/26 18:17:18;;;;;;;4.20;0.68;;;;;;;19.05;100.00;98703.81;5014653;28;20038;-85
2021/06/26 18:19:43;;;;;;;0.47;0.47;;;;;;;19.37;100.00;98772.66;5014603;28;20032;-86
2021/06/26 18:22:09;;;;;;;0.95;0.68;;;;;;;19.42;100.00;98788.75;5016571;28;20029;-85
2021/06/26 18:24:34;;;;;;;25.27;1.50;;;;;;;18.74;100.00;98651.34;5014736;28;20033;-85
2021/06/26 18:27:00;;;;;;;0.55;0.55;;;;;;;18.99;99.84;98703.00;5014626;28;20042;-85
2021/06/26 18:29:25;;;;;;;0.20;0.20;;;;;;;19.04;100.00;98733.88;5014848;28;20026;-85
2021/06/26 18:31:51;;;;;;;2.67;0.93;;;;;;;19.08;100.00;98734.44;5014462;28;20496;-85
2021/06/26 18:34:16;;;;;;;0.77;0.77;;;;;;;19.23;100.00;98778.38;5014445;28;20083;-85
2021/06/26 18:36:42;;;;;;;0.80;0.80;;;;;;;18.83;100.00;98737.19;5014366;28;20172;-85
2021/06/26 18:39:07;;;;;;;5.47;1.05;;;;;;;18.69;100.00;98724.81;5015734;28;20030;-86
2021/06/26 18:41:34;;;;;;;0.70;0.70;;;;;;;18.87;100.00;98726.53;5014494;28;20037;-86
2021/06/26 18:44:00;;;;;;;0.52;0.50;;;;;;;18.70;99.27;98690.75;5014736;28;20030;-87
2021/06/26 18:46:25;;;;;;;0.40;0.40;;;;;;;19.09;100.00;98744.38;5015822;28;20041;-87
2021/06/26 18:48:51;;;;;;;3.28;2.78;;;;;;;19.23;100.00;98758.78;5014566;28;20425;-87
2021/06/26 18:51:16;;;;;;;2.60;2.05;;;;;;;19.03;100.00;98723.16;5014821;28;20393;-87
2021/06/26 18:53:42;;;;;;;1.67;1.58;;;;;;;19.48;100.00;98803.63;5014674;28;20057;-88
2021/06/26 18:56:07;;;;;;;0.30;0.30;;;;;;;19.20;100.00;98756.94;5014542;28;20108;-87
2021/06/26 18:58:44;;;;;;;10.93;1.98;;;;;;;19.35;100.00;98772.38;5014486;28;20026;-87
2021/06/26 19:01:15;;;;;;;0.65;0.65;;;;;;;19.28;100.00;98756.03;5014347;28;20037;-89
2021/06/26 19:03:42;;;;;;;2.45;0.60;;;;;;;19.37;100.00;98757.88;5014309;28;20055;-90
2021/06/26 19:06:08;;;;;;;0.38;0.35;;;;;;;19.18;100.00;98743.41;5014635;28;20507;-89
2021/06/26 19:08:34;;;;;;;0.50;0.50;;;;;;;18.99;100.00;98711.41;5013228;28;20033;-90
2021/06/26 19:11:00;;;;;;;0.20;0.20;;;;;;;19.15;100.00;98758.44;5013426;28;20054;-89
2021/06/26 19:13:27;;;;;;;0.57;0.57;;;;;;;19.14;100.00;98759.69;5013496;28;20069;-89
2021/06/26 19:15:54;;;;;;;0.40;0.40;;;;;;;18.81;100.00;98732.06;5012914;28;20033;-89
2021/06/26 19:18:19;;;;;;;2.83;1.52;;;;;;;19.07;100.00;98749.69;5012999;28;20037;-89
2021/06/26 19:20:46;;;;;;;3.13;1.98;;;;;;;18.98;100.00;98704.28;5014309;28;20038;-89
2021/06/26 19:23:15;;;;;;;0.57;0.57;;;;;;;19.16;100.00;98714.38;5014421;28;20026;-89
2021/06/26 19:25:50;;;;;;;4.78;1.00;;;;;;;19.13;100.00;98718.16;5014091;28;20494;-88
2021/06/26 19:28:22;;;;;;;0.47;0.47;;;;;;;19.03;100.00;98706.38;5014253;28;20026;-88
2021/06/26 19:30:52;;;;;;;1.00;0.70;;;;;;;18.55;100.00;98627.72;5013985;28;20474;-88
2021/06/26 19:33:19;;;;;;;0.75;0.55;;;;;;;18.58;100.00;98644.28;5014078;28;20171;-89
2021/06/26 19:35:45;;;;;;;0.30;0.30;;;;;;;18.87;100.00;98667.75;5014033;28;20037;-89
2021/06/26 19:38:15;;;;;;;0.50;0.50;;;;;;;18.56;100.00;98612.50;5014036;28;20046;-89
2021/06/26 19:40:44;;;;;;;0.10;0.10;;;;;;;18.89;100.00;98652.00;5014058;28;20034;-89
2021/06/26 19:43:10;;;;;;;0.30;0.30;;;;;;;18.50;100.00;98564.06;5013703;28;20033;-89
2021/06/26 19:45:37;;;;;;;0.43;0.43;;;;;;;19.05;100.00;98642.22;5013792;28;20030;-89
2021/06/26 19:48:03;;;;;;;0.35;0.30;;;;;;;18.77;100.00;98583.19;5013586;28;20034;-89
2021/06/26 19:50:28;;;;;;;0.28;0.28;;;;;;;19.06;100.00;98627.72;5013828;28;20037;-88
2021/06/26 19:52:54;;;;;;;0.38;0.38;;;;;;;18.79;100.00;98586.25;5013705;28;20026;-88
2021/06/26 19:55:19;;;;;;;0.20;0.20;;;;;;;19.02;100.00;98623.63;5013566;28;20034;-88
2021/06/26 19:57:45;;;;;;;0.20;0.20;;;;;;;18.93;100.00;98615.38;5013530;28;20037;-87
2021/06/26 20:00:15;;;;;;;0.22;0.22;;;;;;;18.83;100.00;98591.63;5013433;28;20037;-88
2021/06/26 20:02:41;;;;;;;0.43;0.43;;;;;;;18.88;100.00;98605.66;5013394;28;20074;-88
2021/06/26 20:05:08;;;;;;;3.20;0.45;;;;;;;18.76;100.00;98600.44;5013636;28;20405;-88
2021/06/26 20:07:35;;;;;;;1.08;0.95;;;;;;;18.67;100.00;98596.56;5013569;28;20030;-88
2021/06/26 20:10:01;;;;;;;0.17;0.17;;;;;;;18.73;100.00;98621.06;5013362;28;20050;-89
2021/06/26 20:12:26;;;;;;;1.88;1.10;;;;;;;18.49;100.00;98602.47;5013224;28;20033;-89
2021/06/26 20:14:52;;;;;;;2.85;1.42;;;;;;;18.57;100.00;98628.75;5013279;28;20036;-88
2021/06/26 20:17:17;;;;;;;0.38;0.32;;;;;;;18.46;100.00;98602.66;5014427;28;20030;-88
2021/06/26 20:19:43;;;;;;;1.30;0.60;;;;;;;18.63;100.00;98648.41;5013411;28;20117;-89
2021/06/26 20:22:09;;;;;;;0.10;0.10;;;;;;;18.52;100.00;98653.84;5013388;28;20407;-88
2021/06/26 20:24:35;;;;;;;0.38;0.38;;;;;;;18.14;100.00;98610.97;5013048;28;20053;-88
2021/06/26 20:27:02;;;;;;;2.78;0.77;;;;;;;18.65;100.00;98662.69;5012859;28;20065;-87
2021/06/26 20:29:27;;;;;;;0.30;0.30;;;;;;;18.39;100.00;98629.03;5013008;28;20055;-88
2021/06/26 20:31:53;;;;;;;0.38;0.38;;;;;;;18.59;100.00;98645.06;5013002;28;20490;-88
2021/06/26 20:34:19;;;;;;;0.20;0.20;;;;;;;18.30;100.00;98623.59;5013006;28;20504;-87
2021/06/26 20:36:44;;;;;;;0.10;0.10;;;;;;;18.41;100.00;98681.72;5012949;28;20025;-88
2021/06/26 20:39:10;;;;;;;7.25;0.65;;;;;;;18.61;100.00;98684.53;5012921;28;20060;-88
2021/06/26 20:41:35;;;;;;;0.10;0.10;;;;;;;18.54;100.00;98671.72;5012809;28;20113;-88
2021/06/26 20:44:01;;;;;;;0.32;0.32;;;;;;;18.53;100.00;98670.16;5013938;28;20041;-88
2021/06/26 20:46:29;;;;;;;0.15;0.15;;;;;;;18.64;100.00;98687.09;5013689;28;20038;-89
2021/06/26 20:48:55;;;;;;;1.33;0.35;;;;;;;18.67;100.00;98694.53;5012672;28;20029;-89
2021/06/26 20:51:21;;;;;;;3.75;1.38;;;;;;;18.27;100.00;98638.56;5012307;28;20030;-89
2021/06/26 20:53:49;;;;;;;0.30;0.30;;;;;;;18.50;100.00;98689.97;5012217;28;20029;-91
2021/06/26 20:56:14;;;;;;;0.15;0.15;;;;;;;18.33;100.00;98675.00;5013140;28;20124;-93
2021/06/26 20:58:40;;;;;;;0.65;0.63;;;;;;;18.22;100.00;98670.81;5012771;28;20068;-91
2021/06/26 21:01:05;;;;;;;0.15;0.15;;;;;;;18.36;100.00;98696.41;5012101;28;20190;-89
2021/06/26 21:03:31;;;;;;;0.82;0.82;;;;;;;18.35;100.00;98692.84;5011958;28;20050;-88
2021/06/26 21:05:56;;;;;;;0.43;0.43;;;;;;;18.41;100.00;98707.66;5013379;28;20062;-89
2021/06/26 21:08:22;;;;;;;0.20;0.20;;;;;;;18.32;100.00;98721.78;5013220;28;20053;-89
2021/06/26 21:10:47;;;;;;;1.38;1.27;;;;;;;18.36;100.00;98725.16;5012230;28;20087;-88
2021/06/26 21:13:13;;;;;;;11.80;0.77;;;;;;;18.42;100.00;98739.97;5011645;28;20033;-89
2021/06/26 21:15:38;;;;;;;0.10;0.10;;;;;;;18.29;100.00;98717.94;5011866;28;20038;-90
2021/06/26 21:18:04;;;;;;;1.45;1.05;;;;;;;18.26;100.00;98706.97;5013265;28;20528;-90
2021/06/26 21:20:29;;;;;;;0.50;0.50;;;;;;;18.20;100.00;98690.09;5013570;28;20038;-89
2021/06/26 21:22:55;;;;;;;1.27;1.15;;;;;;;18.36;100.00;98716.75;5011964;28;20057;-89
2021/06/26 21:25:20;;;;;;;2.75;1.35;;;;;;;18.40;100.00;98724.94;5012007;28;20025;-88
2021/06/26 21:27:46;;;;;;;1.60;1.33;;;;;;;18.41;100.00;98724.44;5011873;28;20063;-91
2021/06/26 21:30:14;;;;;;;0.32;0.32;;;;;;;18.47;100.00;98727.31;5012066;28;20022;-89
2021/06/26 21:32:40;;;;;;;7.85;1.25;;;;;;;18.42;100.00;98723.19;5013078;28;20041;-88
2021/06/26 21:35:09;;;;;;;0.10;0.10;;;;;;;18.19;100.00;98673.81;5013061;28;20096;-88
2021/06/26 21:37:35;;;;;;;0.63;0.63;;;;;;;18.34;100.00;98685.69;5011513;28;20097;-92
2021/06/26 21:40:01;;;;;;;1.52;0.80;;;;;;;18.33;100.00;98688.97;5012428;28;20053;-95
2021/06/26 21:42:26;;;;;;;0.45;0.45;;;;;;;18.36;100.00;98702.00;5012079;28;20528;-96
2021/06/26 21:44:53;;;;;;;1.55;0.68;;;;;;;18.08;100.00;98673.69;5013221;28;20022;-95
2021/06/26 21:47:19;;;;;;;15.77;1.60;;;;;;;18.24;100.00;98704.66;5013635;28;20032;-95
2021/06/26 21:49:44;;;;;;;0.63;0.50;;;;;;;18.23;100.00;98694.72;5013003;28;20117;-95
2021/06/26 21:52:10;;;;;;;0.55;0.55;;;;;;;18.25;100.00;98683.06;5013154;28;20029;-95
2021/06/26 21:54:35;;;;;;;0.20;0.20;;;;;;;18.00;100.00;98655.75;5012432;28;20469;-94
2021/06/26 21:57:01;;;;;;;0.50;0.50;;;;;;;18.12;100.00;98661.00;5014070;28;20037;-94
2021/06/26 21:59:26;;;;;;;0.45;0.45;;;;;;;17.93;100.00;98637.38;5013279;28;20026;-96
2021/06/26 22:01:52;;;;;;;1.45;0.95;;;;;;;18.11;100.00;98686.66;5012681;28;20030;-93
2021/06/26 22:04:18;;;;;;;0.45;0.43;;;;;;;17.92;100.00;98663.78;5015105;28;20053;-96
2021/06/26 22:06:44;;;;;;;0.30;0.30;;;;;;;17.75;100.00;98649.56;5013082;28;20034;-96
2021/06/26 22:09:10;;;;;;;0.63;0.63;;;;;;;17.83;100.00;98658.34;5014079;28;20030;-96
2021/06/26 22:11:36;;;;;;;1.40;1.30;;;;;;;17.85;100.00;98662.16;5013511;28;20470;-95
2021/06/26 22:14:04;;;;;;;0.30;0.30;;;;;;;17.86;100.00;98668.53;5012824;28;20022;-92
2021/06/26 22:16:32;;;;;;;0.75;0.75;;;;;;;17.85;100.00;98684.53;5014293;28;20044;-96
2021/06/26 22:18:59;;;;;;;0.32;0.32;;;;;;;17.79;100.00;98672.50;5012070;28;20030;-95
2021/06/26 22:21:26;;;;;;;0.53;0.53;;;;;;;17.92;100.00;98677.00;5012338;28;20134;-93
2021/06/26 22:23:51;;;;;;;0.35;0.35;;;;;;;17.90;100.00;98657.94;5012690;28;20026;-94
2021/06/26 22:26:18;;;;;;;0.30;0.30;;;;;;;17.79;100.00;98650.13;5017387;28;20028;-95
2021/06/26 22:28:44;;;;;;;0.20;0.20;;;;;;;17.78;100.00;98651.38;5016948;28;20034;-95
2021/06/26 22:31:10;;;;;;;1.17;0.75;;;;;;;17.92;100.00;98651.84;5017137;28;20030;-95
2021/06/26 22:33:36;;;;;;;0.35;0.35;;;;;;;17.88;100.00;98646.47;5017900;28;20033;-94
2021/06/26 22:36:03;;;;;;;0.43;0.43;;;;;;;17.92;100.00;98663.78;5017101;28;20144;-94
2021/06/26 22:38:29;;;;;;;0.40;0.40;;;;;;;17.82;100.00;98646.38;5015357;28;20096;-92
2021/06/26 22:40:55;;;;;;;1.30;1.20;;;;;;;17.49;100.00;98587.97;5015594;28;20034;-91
2021/06/26 22:43:21;;;;;;;0.52;0.52;;;;;;;17.83;100.00;98642.34;5015206;28;20038;-93
2021/06/26 22:45:47;;;;;;;0.35;0.35;;;;;;;17.88;100.00;98647.22;5015038;28;20088;-91
2021/06/26 22:48:13;;;;;;;4.07;2.28;;;;;;;17.95;100.00;98648.84;5014810;28;20080;-89
2021/06/26 22:50:41;;;;;;;0.20;0.20;;;;;;;17.82;100.00;98628.84;5014715;28;20038;-92
2021/06/26 22:53:07;;;;;;;1.08;0.98;;;;;;;17.88;100.00;98652.81;5014791;28;20026;-93
2021/06/26 22:55:34;;;;;;;0.38;0.38;;;;;;;17.70;100.00;98613.94;5014745;28;20058;-90
2021/06/26 22:58:02;;;;;;;0.30;0.30;;;;;;;17.89;100.00;98653.59;5014898;28;20488;-90
2021/06/26 23:00:31;;;;;;;0.32;0.32;;;;;;;17.66;100.00;98609.81;5014680;28;20040;-91
2021/06/26 23:02:58;;;;;;;0.65;0.60;;;;;;;17.79;100.00;98652.94;5014525;28;20477;-92
2021/06/26 23:05:25;;;;;;;0.10;0.10;;;;;;;17.54;100.00;98608.84;5014665;28;20029;-92
2021/06/26 23:07:51;;;;;;;0.82;0.15;;;;;;;17.61;100.00;98613.28;5014723;28;20145;-93
2021/06/26 23:10:18;;;;;;;0.45;0.45;;;;;;;17.59;100.00;98610.97;5014284;28;20030;-94
2021/06/26 23:12:44;;;;;;;0.70;0.50;;;;;;;17.84;100.00;98640.31;5015950;28;20037;-94
2021/06/26 23:15:12;;;;;;;0.20;0.20;;;;;;;17.74;100.00;98622.13;5014609;28;20041;-95
2021/06/26 23:17:39;;;;;;;0.35;0.35;;;;;;;17.88;100.00;98643.66;5014743;28;20033;-93
2021/06/26 23:20:13;;;;;;;3.20;1.33;;;;;;;17.65;100.00;98597.88;5014887;28;20026;-94
2021/06/26 23:22:39;;;;;;;0.50;0.40;;;;;;;17.83;100.00;98635.97;5015083;28;20312;-94
2021/06/26 23:25:05;;;;;;;1.65;0.90;;;;;;;17.89;100.00;98632.00;5015929;28;20034;-94
2021/06/26 23:27:30;;;;;;;0.30;0.30;;;;;;;17.83;100.00;98633.19;5014832;28;20112;-93
2021/06/26 23:29:56;;;;;;;0.13;0.13;;;;;;;17.99;100.00;98629.84;5014310;28;20057;-93
2021/06/26 23:32:22;;;;;;;0.20;0.20;;;;;;;18.01;100.00;98630.13;5015640;28;20088;-95
2021/06/26 23:34:47;;;;;;;0.10;0.10;;;;;;;17.78;100.00;98575.19;5015218;28;20045;-93
2021/06/26 23:37:13;;;;;;;0.20;0.20;;;;;;;17.98;100.00;98585.59;5013647;28;20038;-92
2021/06/26 23:39:39;;;;;;;0.10;0.10;;;;;;;18.14;98.99;98610.97;5014065;28;20472;-93
2021/06/26 23:42:05;;;;;;;6.50;0.90;;;;;;;18.33;98.75;98622.63;5014403;28;20500;-93
2021/06/26 23:44:31;;;;;;;0.63;0.63;;;;;;;18.36;97.18;98618.06;5013886;28;20568;-92
2021/06/26 23:46:56;;;;;;;0.40;0.40;;;;;;;18.50;96.47;98648.78;5013832;28;20062;-92
2021/06/26 23:49:22;;;;;;;0.60;0.60;;;;;;;18.54;95.38;98638.13;5014202;28;20037;-92
2021/06/26 23:51:47;;;;;;;1.75;1.02;;;;;;;18.61;94.23;98625.78;5014350;28;20057;-92
2021/06/26 23:54:13;;;;;;;0.30;0.30;;;;;;;18.76;93.99;98637.63;5014711;28;20105;-95
2021/06/26 23:56:39;;;;;;;0.47;0.47;;;;;;;18.58;92.86;98612.75;5014428;28;20026;-92
2021/06/26 23:59:04;;;;;;;0.30;0.30;;;;;;;18.36;93.35;98545.34;5013802;28;20041;-92
